createdAt,value
2017-04-16T00:00:03.467Z,32.74
2017-04-16T00:00:13.553Z,32.74
2017-04-16T00:00:23.934Z,32.74
2017-04-16T00:00:33.742Z,32.74
2017-04-16T00:00:43.835Z,32.74
2017-04-16T00:00:53.933Z,32.74
2017-04-16T00:01:04.025Z,32.74
2017-04-16T00:01:13.830Z,32.74
2017-04-16T00:01:23.923Z,32.74
2017-04-16T00:01:33.726Z,32.74
2017-04-16T00:01:43.817Z,32.74
2017-04-16T00:01:53.901Z,32.74
2017-04-16T00:02:03.993Z,32.74
2017-04-16T00:02:13.798Z,32.74
2017-04-16T00:02:23.889Z,32.74
2017-04-16T00:02:34.052Z,32.74
2017-04-16T00:02:44.144Z,32.74
2017-04-16T00:02:54.234Z,32.74
2017-04-16T00:03:04.322Z,32.74
2017-04-16T00:03:14.411Z,32.74
2017-04-16T00:03:24.507Z,32.74
2017-04-16T00:03:34.621Z,32.74
2017-04-16T00:03:44.851Z,32.74
2017-04-16T00:03:54.938Z,32.74
2017-04-16T00:04:05.024Z,32.74
2017-04-16T00:04:15.119Z,32.74
2017-04-16T00:04:25.214Z,32.74
2017-04-16T00:04:35.309Z,32.74
2017-04-16T00:04:45.396Z,32.74
2017-04-16T00:04:55.490Z,32.84
2017-04-16T00:05:05.002Z,32.84
2017-04-16T00:05:14.801Z,32.84
2017-04-16T00:05:24.599Z,32.84
2017-04-16T00:05:34.688Z,32.84
2017-04-16T00:05:44.779Z,32.84
2017-04-16T00:05:55.121Z,32.84
2017-04-16T00:06:05.209Z,32.84
2017-04-16T00:06:15.296Z,32.84
2017-04-16T00:06:25.384Z,32.84
2017-04-16T00:06:35.470Z,32.84
2017-04-16T00:06:45.275Z,32.84
2017-04-16T00:06:55.082Z,32.93
2017-04-16T00:07:05.217Z,32.93
2017-04-16T00:07:15.312Z,32.93
2017-04-16T00:07:25.401Z,32.93
2017-04-16T00:07:35.490Z,32.93
2017-04-16T00:07:45.578Z,32.93
2017-04-16T00:07:55.674Z,32.93
2017-04-16T00:08:05.767Z,32.93
2017-04-16T00:08:16.081Z,32.93
2017-04-16T00:08:26.165Z,32.93
2017-04-16T00:08:36.267Z,32.93
2017-04-16T00:08:46.351Z,32.93
2017-04-16T00:08:56.436Z,32.93
2017-04-16T00:09:06.531Z,32.93
2017-04-16T00:09:16.922Z,32.93
2017-04-16T00:09:26.725Z,32.93
2017-04-16T00:09:36.527Z,32.93
2017-04-16T00:09:46.620Z,32.93
2017-04-16T00:09:56.709Z,32.93
2017-04-16T00:10:06.519Z,32.93
2017-04-16T00:10:16.606Z,32.93
2017-04-16T00:10:25.926Z,32.93
2017-04-16T00:10:36.014Z,33.03
2017-04-16T00:10:45.843Z,33.03
2017-04-16T00:10:55.938Z,33.03
2017-04-16T00:11:06.042Z,33.03
2017-04-16T00:11:16.129Z,33.03
2017-04-16T00:11:25.638Z,33.03
2017-04-16T00:11:35.750Z,33.03
2017-04-16T00:11:45.549Z,33.03
2017-04-16T00:11:55.638Z,33.03
2017-04-16T00:12:05.730Z,33.03
2017-04-16T00:12:15.827Z,33.03
2017-04-16T00:12:25.910Z,33.03
2017-04-16T00:12:35.998Z,33.03
2017-04-16T00:12:46.283Z,33.03
2017-04-16T00:12:56.376Z,33.03
2017-04-16T00:13:06.472Z,33.12
2017-04-16T00:13:16.561Z,33.12
2017-04-16T00:13:26.651Z,33.12
2017-04-16T00:13:36.744Z,33.12
2017-04-16T00:13:46.927Z,33.12
2017-04-16T00:13:57.008Z,33.12
2017-04-16T00:14:07.094Z,33.12
2017-04-16T00:14:16.892Z,33.12
2017-04-16T00:14:26.984Z,33.12
2017-04-16T00:14:36.792Z,33.12
2017-04-16T00:14:46.891Z,33.12
2017-04-16T00:14:57.094Z,33.12
2017-04-16T00:15:07.184Z,33.12
2017-04-16T00:15:17.275Z,33.22
2017-04-16T00:15:27.363Z,33.22
2017-04-16T00:15:37.450Z,33.22
2017-04-16T00:15:47.537Z,33.22
2017-04-16T00:15:57.436Z,33.22
2017-04-16T00:16:07.639Z,33.22
2017-04-16T00:16:17.734Z,33.22
2017-04-16T00:16:27.819Z,33.22
2017-04-16T00:16:37.919Z,33.22
2017-04-16T00:16:48.009Z,33.22
2017-04-16T00:16:58.100Z,33.22
2017-04-16T00:17:08.188Z,33.22
2017-04-16T00:17:18.277Z,33.22
2017-04-16T00:17:28.083Z,33.22
2017-04-16T00:17:38.174Z,33.22
2017-04-16T00:17:48.016Z,33.22
2017-04-16T00:17:58.113Z,33.22
2017-04-16T00:18:08.202Z,33.22
2017-04-16T00:18:18.011Z,33.22
2017-04-16T00:18:28.099Z,33.22
2017-04-16T00:18:38.191Z,33.22
2017-04-16T00:18:48.288Z,33.22
2017-04-16T00:18:58.097Z,33.22
2017-04-16T00:19:08.193Z,33.22
2017-04-16T00:19:17.989Z,33.22
2017-04-16T00:19:27.791Z,33.22
2017-04-16T00:19:37.880Z,33.22
2017-04-16T00:19:47.971Z,33.22
2017-04-16T00:19:58.059Z,33.22
2017-04-16T00:20:07.859Z,33.22
2017-04-16T00:20:17.956Z,33.22
2017-04-16T00:20:28.041Z,33.22
2017-04-16T00:20:38.123Z,33.31
2017-04-16T00:20:48.218Z,33.31
2017-04-16T00:20:58.018Z,33.31
2017-04-16T00:21:08.107Z,33.31
2017-04-16T00:21:17.619Z,33.31
2017-04-16T00:21:27.419Z,33.31
2017-04-16T00:21:37.512Z,33.31
2017-04-16T00:21:47.308Z,33.31
2017-04-16T00:21:57.395Z,33.31
2017-04-16T00:22:07.200Z,33.31
2017-04-16T00:22:17.004Z,33.31
2017-04-16T00:22:26.816Z,33.31
2017-04-16T00:22:36.901Z,33.31
2017-04-16T00:22:46.989Z,33.31
2017-04-16T00:22:57.081Z,33.31
2017-04-16T00:23:06.878Z,33.31
2017-04-16T00:23:16.974Z,33.31
2017-04-16T00:23:27.056Z,33.31
2017-04-16T00:23:36.864Z,33.31
2017-04-16T00:23:46.953Z,33.31
2017-04-16T00:23:56.810Z,33.31
2017-04-16T00:24:06.904Z,33.31
2017-04-16T00:24:16.990Z,33.4
2017-04-16T00:24:27.078Z,33.4
2017-04-16T00:24:37.165Z,33.4
2017-04-16T00:24:47.263Z,33.4
2017-04-16T00:24:57.350Z,33.31
2017-04-16T00:25:07.461Z,33.4
2017-04-16T00:25:17.554Z,33.4
2017-04-16T00:25:27.638Z,33.4
2017-04-16T00:25:37.730Z,33.4
2017-04-16T00:25:47.818Z,33.4
2017-04-16T00:25:57.903Z,33.4
2017-04-16T00:26:08.048Z,33.4
2017-04-16T00:26:17.847Z,33.4
2017-04-16T00:26:27.647Z,33.4
2017-04-16T00:26:37.740Z,33.4
2017-04-16T00:26:47.832Z,33.4
2017-04-16T00:26:57.917Z,33.4
2017-04-16T00:27:08.008Z,33.4
2017-04-16T00:27:18.101Z,33.4
2017-04-16T00:27:28.191Z,33.4
2017-04-16T00:27:38.283Z,33.4
2017-04-16T00:27:48.112Z,33.4
2017-04-16T00:27:58.207Z,33.4
2017-04-16T00:28:08.293Z,33.4
2017-04-16T00:28:18.450Z,33.4
2017-04-16T00:28:28.599Z,33.4
2017-04-16T00:28:38.697Z,33.4
2017-04-16T00:28:48.788Z,33.5
2017-04-16T00:28:58.874Z,33.5
2017-04-16T00:29:08.961Z,33.5
2017-04-16T00:29:19.049Z,33.5
2017-04-16T00:29:28.558Z,33.5
2017-04-16T00:29:38.359Z,33.5
2017-04-16T00:29:48.450Z,33.5
2017-04-16T00:29:58.539Z,33.5
2017-04-16T00:30:08.628Z,33.5
2017-04-16T00:30:18.427Z,33.5
2017-04-16T00:30:28.518Z,33.5
2017-04-16T00:30:38.604Z,33.5
2017-04-16T00:30:48.694Z,33.5
2017-04-16T00:30:58.786Z,33.5
2017-04-16T00:31:08.877Z,33.5
2017-04-16T00:31:18.673Z,33.5
2017-04-16T00:31:28.760Z,33.5
2017-04-16T00:31:38.848Z,33.5
2017-04-16T00:31:49.062Z,33.5
2017-04-16T00:31:59.158Z,33.5
2017-04-16T00:32:09.249Z,33.5
2017-04-16T00:32:19.341Z,33.5
2017-04-16T00:32:29.427Z,33.5
2017-04-16T00:32:39.519Z,33.5
2017-04-16T00:32:49.614Z,33.5
2017-04-16T00:32:59.714Z,33.5
2017-04-16T00:33:09.815Z,33.59
2017-04-16T00:33:19.905Z,33.59
2017-04-16T00:33:29.994Z,33.59
2017-04-16T00:33:39.809Z,33.59
2017-04-16T00:33:49.905Z,33.59
2017-04-16T00:33:59.721Z,33.59
2017-04-16T00:34:09.514Z,33.59
2017-04-16T00:34:19.642Z,33.59
2017-04-16T00:34:29.733Z,33.59
2017-04-16T00:34:39.821Z,33.59
2017-04-16T00:34:49.912Z,33.59
2017-04-16T00:34:59.999Z,33.59
2017-04-16T00:35:10.174Z,33.59
2017-04-16T00:35:19.974Z,33.59
2017-04-16T00:35:30.059Z,33.59
2017-04-16T00:35:40.173Z,33.59
2017-04-16T00:35:50.252Z,33.59
2017-04-16T00:36:00.343Z,33.59
2017-04-16T00:36:10.436Z,33.59
2017-04-16T00:36:20.536Z,33.69
2017-04-16T00:36:30.631Z,33.69
2017-04-16T00:36:40.714Z,33.69
2017-04-16T00:36:50.514Z,33.69
2017-04-16T00:37:00.613Z,33.69
2017-04-16T00:37:10.703Z,33.69
2017-04-16T00:37:20.535Z,33.69
2017-04-16T00:37:30.626Z,33.69
2017-04-16T00:37:40.717Z,33.69
2017-04-16T00:37:50.810Z,33.69
2017-04-16T00:38:00.897Z,33.69
2017-04-16T00:38:10.699Z,33.69
2017-04-16T00:38:20.495Z,33.78
2017-04-16T00:38:30.584Z,33.69
2017-04-16T00:38:40.676Z,33.78
2017-04-16T00:38:50.504Z,33.78
2017-04-16T00:39:00.591Z,33.78
2017-04-16T00:39:10.679Z,33.78
2017-04-16T00:39:20.767Z,33.78
2017-04-16T00:39:30.857Z,33.78
2017-04-16T00:39:40.954Z,33.78
2017-04-16T00:39:51.039Z,33.78
2017-04-16T00:40:01.127Z,33.78
2017-04-16T00:40:10.929Z,33.87
2017-04-16T00:40:21.022Z,33.87
2017-04-16T00:40:30.823Z,33.87
2017-04-16T00:40:40.631Z,33.87
2017-04-16T00:40:50.735Z,33.87
2017-04-16T00:41:00.537Z,33.87
2017-04-16T00:41:10.627Z,33.87
2017-04-16T00:41:20.712Z,33.87
2017-04-16T00:41:30.506Z,33.87
2017-04-16T00:41:40.330Z,33.87
2017-04-16T00:41:50.551Z,33.87
2017-04-16T00:42:00.351Z,33.87
2017-04-16T00:42:10.439Z,33.87
2017-04-16T00:42:20.532Z,33.87
2017-04-16T00:42:30.041Z,33.87
2017-04-16T00:42:39.849Z,33.87
2017-04-16T00:42:49.948Z,33.97
2017-04-16T00:43:00.309Z,33.97
2017-04-16T00:43:10.397Z,33.97
2017-04-16T00:43:20.196Z,33.97
2017-04-16T00:43:30.286Z,33.97
2017-04-16T00:43:40.380Z,33.97
2017-04-16T00:43:50.478Z,33.97
2017-04-16T00:44:00.900Z,33.97
2017-04-16T00:44:10.698Z,33.97
2017-04-16T00:44:20.501Z,33.97
2017-04-16T00:44:30.591Z,34.06
2017-04-16T00:44:40.681Z,33.97
2017-04-16T00:44:50.483Z,34.06
2017-04-16T00:45:00.582Z,34.06
2017-04-16T00:45:10.379Z,34.06
2017-04-16T00:45:20.467Z,34.06
2017-04-16T00:45:30.558Z,34.06
2017-04-16T00:45:40.644Z,34.06
2017-04-16T00:45:50.732Z,34.06
2017-04-16T00:46:00.817Z,34.06
2017-04-16T00:46:10.613Z,34.16
2017-04-16T00:46:20.699Z,34.16
2017-04-16T00:46:30.787Z,34.25
2017-04-16T00:46:40.883Z,34.25
2017-04-16T00:46:50.973Z,34.25
2017-04-16T00:47:01.061Z,34.25
2017-04-16T00:47:11.150Z,34.25
2017-04-16T00:47:21.245Z,34.25
2017-04-16T00:47:31.334Z,34.25
2017-04-16T00:47:41.421Z,34.34
2017-04-16T00:47:50.933Z,34.25
2017-04-16T00:48:01.026Z,34.34
2017-04-16T00:48:11.110Z,34.34
2017-04-16T00:48:20.914Z,34.34
2017-04-16T00:48:31.008Z,34.34
2017-04-16T00:48:40.816Z,34.34
2017-04-16T00:48:50.911Z,34.34
2017-04-16T00:49:00.715Z,34.34
2017-04-16T00:49:10.802Z,34.34
2017-04-16T00:49:20.897Z,34.34
2017-04-16T00:49:30.699Z,34.34
2017-04-16T00:49:40.787Z,34.34
2017-04-16T00:49:50.604Z,34.34
2017-04-16T00:50:00.697Z,34.34
2017-04-16T00:50:10.499Z,34.34
2017-04-16T00:50:20.295Z,34.34
2017-04-16T00:50:30.100Z,34.34
2017-04-16T00:50:40.180Z,34.34
2017-04-16T00:50:50.290Z,34.44
2017-04-16T00:51:00.380Z,34.34
2017-04-16T00:51:10.465Z,34.44
2017-04-16T00:51:20.548Z,34.44
2017-04-16T00:51:30.631Z,34.44
2017-04-16T00:51:40.720Z,34.44
2017-04-16T00:51:50.810Z,34.44
2017-04-16T00:52:00.903Z,34.44
2017-04-16T00:52:11.003Z,34.44
2017-04-16T00:52:21.097Z,34.44
2017-04-16T00:52:31.182Z,34.44
2017-04-16T00:52:41.273Z,34.44
2017-04-16T00:52:51.359Z,34.44
2017-04-16T00:53:01.162Z,34.44
2017-04-16T00:53:11.271Z,34.44
2017-04-16T00:53:21.366Z,34.44
2017-04-16T00:53:31.174Z,34.44
2017-04-16T00:53:41.264Z,34.44
2017-04-16T00:53:51.359Z,34.44
2017-04-16T00:54:01.167Z,34.44
2017-04-16T00:54:11.473Z,34.44
2017-04-16T00:54:21.565Z,34.44
2017-04-16T00:54:31.653Z,34.44
2017-04-16T00:54:41.746Z,34.44
2017-04-16T00:54:51.831Z,34.44
2017-04-16T00:55:01.921Z,34.44
2017-04-16T00:55:12.021Z,34.44
2017-04-16T00:55:22.109Z,34.44
2017-04-16T00:55:31.913Z,34.44
2017-04-16T00:55:41.713Z,34.44
2017-04-16T00:55:51.801Z,34.44
2017-04-16T00:56:01.889Z,34.44
2017-04-16T00:56:11.979Z,34.44
2017-04-16T00:56:22.064Z,34.44
2017-04-16T00:56:31.570Z,34.44
2017-04-16T00:56:41.653Z,34.44
2017-04-16T00:56:51.744Z,34.44
2017-04-16T00:57:01.832Z,34.44
2017-04-16T00:57:11.639Z,34.44
2017-04-16T00:57:21.728Z,34.44
2017-04-16T00:57:31.818Z,34.44
2017-04-16T00:57:41.941Z,34.44
2017-04-16T00:57:52.029Z,34.44
2017-04-16T00:58:02.123Z,34.44
2017-04-16T00:58:11.923Z,34.44
2017-04-16T00:58:21.722Z,34.44
2017-04-16T00:58:31.806Z,34.44
2017-04-16T00:58:41.915Z,34.44
2017-04-16T00:58:52.003Z,34.44
2017-04-16T00:59:02.126Z,34.44
2017-04-16T00:59:12.246Z,34.44
2017-04-16T00:59:22.055Z,34.44
2017-04-16T00:59:32.150Z,34.44
2017-04-16T00:59:42.240Z,34.44
2017-04-16T00:59:52.329Z,34.44
2017-04-16T01:00:02.428Z,34.44
2017-04-16T01:00:12.225Z,34.44
2017-04-16T01:00:22.316Z,34.44
2017-04-16T01:00:32.399Z,34.44
2017-04-16T01:00:42.488Z,34.44
2017-04-16T01:00:52.630Z,34.44
2017-04-16T01:01:02.438Z,34.44
2017-04-16T01:01:12.527Z,34.44
2017-04-16T01:01:22.616Z,34.44
2017-04-16T01:01:32.706Z,34.44
2017-04-16T01:01:42.797Z,34.44
2017-04-16T01:01:52.882Z,34.44
2017-04-16T01:02:02.974Z,34.44
2017-04-16T01:02:12.779Z,34.44
2017-04-16T01:02:22.871Z,34.44
2017-04-16T01:02:32.959Z,34.44
2017-04-16T01:02:42.760Z,34.44
2017-04-16T01:02:52.562Z,34.44
2017-04-16T01:03:02.655Z,34.44
2017-04-16T01:03:12.741Z,34.44
2017-04-16T01:03:22.830Z,34.53
2017-04-16T01:03:32.924Z,34.53
2017-04-16T01:03:43.015Z,34.53
2017-04-16T01:03:52.828Z,34.53
2017-04-16T01:04:02.911Z,34.53
2017-04-16T01:04:13.004Z,34.53
2017-04-16T01:04:22.230Z,34.53
2017-04-16T01:04:32.318Z,34.53
2017-04-16T01:04:42.405Z,34.53
2017-04-16T01:04:52.497Z,34.53
2017-04-16T01:05:02.589Z,34.53
2017-04-16T01:05:12.384Z,34.53
2017-04-16T01:05:22.184Z,34.53
2017-04-16T01:05:32.272Z,34.53
2017-04-16T01:05:42.359Z,34.53
2017-04-16T01:05:52.446Z,34.53
2017-04-16T01:06:02.531Z,34.53
2017-04-16T01:06:12.621Z,34.53
2017-04-16T01:06:22.718Z,34.53
2017-04-16T01:06:32.521Z,34.53
2017-04-16T01:06:42.609Z,34.53
2017-04-16T01:06:52.695Z,34.53
2017-04-16T01:07:02.811Z,34.53
2017-04-16T01:07:12.897Z,34.53
2017-04-16T01:07:22.711Z,34.53
2017-04-16T01:07:32.796Z,34.53
2017-04-16T01:07:42.889Z,34.53
2017-04-16T01:07:52.974Z,34.53
2017-04-16T01:08:03.070Z,34.63
2017-04-16T01:08:12.866Z,34.63
2017-04-16T01:08:22.671Z,34.53
2017-04-16T01:08:32.766Z,34.63
2017-04-16T01:08:42.865Z,34.63
2017-04-16T01:08:52.953Z,34.63
2017-04-16T01:09:03.053Z,34.63
2017-04-16T01:09:13.152Z,34.63
2017-04-16T01:09:23.243Z,34.63
2017-04-16T01:09:33.329Z,34.63
2017-04-16T01:09:43.414Z,34.63
2017-04-16T01:09:53.270Z,34.63
2017-04-16T01:10:03.371Z,34.63
2017-04-16T01:10:13.173Z,34.63
2017-04-16T01:10:22.973Z,34.63
2017-04-16T01:10:33.066Z,34.63
2017-04-16T01:10:42.867Z,34.63
2017-04-16T01:10:52.955Z,34.63
2017-04-16T01:11:02.759Z,34.63
2017-04-16T01:11:12.845Z,34.63
2017-04-16T01:11:22.929Z,34.63
2017-04-16T01:11:33.012Z,34.63
2017-04-16T01:11:42.808Z,34.63
2017-04-16T01:11:52.897Z,34.63
2017-04-16T01:12:02.698Z,34.63
2017-04-16T01:12:13.026Z,34.63
2017-04-16T01:12:23.114Z,34.63
2017-04-16T01:12:33.201Z,34.63
2017-04-16T01:12:42.715Z,34.63
2017-04-16T01:12:52.513Z,34.63
2017-04-16T01:13:02.320Z,34.63
2017-04-16T01:13:12.419Z,34.63
2017-04-16T01:13:22.512Z,34.63
2017-04-16T01:13:32.602Z,34.63
2017-04-16T01:13:42.691Z,34.63
2017-04-16T01:13:52.786Z,34.63
2017-04-16T01:14:02.883Z,34.63
2017-04-16T01:14:13.019Z,34.63
2017-04-16T01:14:23.193Z,34.63
2017-04-16T01:14:33.286Z,34.63
2017-04-16T01:14:43.371Z,34.63
2017-04-16T01:14:53.459Z,34.63
2017-04-16T01:15:03.546Z,34.63
2017-04-16T01:15:13.631Z,34.63
2017-04-16T01:15:23.429Z,34.63
2017-04-16T01:15:33.715Z,34.63
2017-04-16T01:15:43.806Z,34.63
2017-04-16T01:15:53.897Z,34.63
2017-04-16T01:16:03.984Z,34.63
2017-04-16T01:16:14.069Z,34.63
2017-04-16T01:16:24.162Z,34.63
2017-04-16T01:16:34.248Z,34.63
2017-04-16T01:16:44.076Z,34.63
2017-04-16T01:16:54.107Z,34.63
2017-04-16T01:17:04.201Z,34.63
2017-04-16T01:17:14.286Z,34.63
2017-04-16T01:17:24.397Z,34.63
2017-04-16T01:17:34.489Z,34.63
2017-04-16T01:17:44.581Z,34.63
2017-04-16T01:17:54.677Z,34.63
2017-04-16T01:18:04.759Z,34.63
2017-04-16T01:18:14.842Z,34.63
2017-04-16T01:18:24.925Z,34.63
2017-04-16T01:18:35.020Z,34.63
2017-04-16T01:18:44.822Z,34.63
2017-04-16T01:18:54.929Z,34.63
2017-04-16T01:19:05.020Z,34.63
2017-04-16T01:19:15.139Z,34.63
2017-04-16T01:19:25.234Z,34.63
2017-04-16T01:19:35.318Z,34.63
2017-04-16T01:19:45.412Z,34.63
2017-04-16T01:19:55.213Z,34.63
2017-04-16T01:20:05.301Z,34.63
2017-04-16T01:20:15.103Z,34.63
2017-04-16T01:20:25.192Z,34.63
2017-04-16T01:20:34.995Z,34.63
2017-04-16T01:20:44.792Z,34.63
2017-04-16T01:20:54.887Z,34.63
2017-04-16T01:21:05.226Z,34.72
2017-04-16T01:21:15.451Z,34.63
2017-04-16T01:21:25.547Z,34.72
2017-04-16T01:21:35.635Z,34.63
2017-04-16T01:21:45.723Z,34.72
2017-04-16T01:21:55.810Z,34.72
2017-04-16T01:22:05.899Z,34.72
2017-04-16T01:22:15.698Z,34.72
2017-04-16T01:22:25.793Z,34.72
2017-04-16T01:22:35.597Z,34.72
2017-04-16T01:22:45.403Z,34.72
2017-04-16T01:22:55.500Z,34.72
2017-04-16T01:23:05.592Z,34.72
2017-04-16T01:23:15.685Z,34.72
2017-04-16T01:23:25.980Z,34.72
2017-04-16T01:23:36.075Z,34.72
2017-04-16T01:23:45.880Z,34.72
2017-04-16T01:23:55.964Z,34.7
2017-04-16T01:24:06.068Z,34.72
2017-04-16T01:24:16.160Z,34.72
2017-04-16T01:24:26.317Z,34.72
2017-04-16T01:24:36.515Z,34.72
2017-04-16T01:24:46.601Z,34.72
2017-04-16T01:24:56.717Z,34.72
2017-04-16T01:25:06.235Z,34.72
2017-04-16T01:25:16.330Z,34.72
2017-04-16T01:25:26.420Z,34.72
2017-04-16T01:25:36.505Z,34.72
2017-04-16T01:25:46.595Z,34.72
2017-04-16T01:25:56.396Z,34.72
2017-04-16T01:26:06.487Z,34.7
2017-04-16T01:26:16.577Z,34.7
2017-04-16T01:26:26.695Z,34.72
2017-04-16T01:26:36.781Z,34.7
2017-04-16T01:26:46.580Z,34.72
2017-04-16T01:26:56.670Z,34.72
2017-04-16T01:27:06.759Z,34.72
2017-04-16T01:27:16.844Z,34.72
2017-04-16T01:27:26.927Z,34.72
2017-04-16T01:27:37.019Z,34.72
2017-04-16T01:27:47.108Z,34.72
2017-04-16T01:27:57.200Z,34.72
2017-04-16T01:28:07.298Z,34.72
2017-04-16T01:28:17.386Z,34.72
2017-04-16T01:28:27.479Z,34.7
2017-04-16T01:28:37.284Z,34.7
2017-04-16T01:28:47.381Z,34.7
2017-04-16T01:28:57.492Z,34.8
2017-04-16T01:29:07.585Z,34.8
2017-04-16T01:29:17.676Z,34.8
2017-04-16T01:29:27.764Z,34.8
2017-04-16T01:29:37.861Z,34.8
2017-04-16T01:29:47.945Z,34.8
2017-04-16T01:29:58.034Z,34.8
2017-04-16T01:30:08.162Z,34.8
2017-04-16T01:30:17.957Z,34.8
2017-04-16T01:30:28.060Z,34.8
2017-04-16T01:30:38.152Z,34.8
2017-04-16T01:30:48.249Z,34.8
2017-04-16T01:30:57.776Z,34.8
2017-04-16T01:31:07.859Z,34.8
2017-04-16T01:31:17.948Z,34.82
2017-04-16T01:31:28.030Z,34.8
2017-04-16T01:31:38.120Z,34.8
2017-04-16T01:31:48.201Z,34.8
2017-04-16T01:31:58.295Z,34.8
2017-04-16T01:32:07.816Z,34.8
2017-04-16T01:32:18.111Z,34.8
2017-04-16T01:32:28.203Z,34.8
2017-04-16T01:32:38.294Z,34.89
2017-04-16T01:32:48.385Z,34.89
2017-04-16T01:32:58.474Z,34.89
2017-04-16T01:33:08.561Z,34.89
2017-04-16T01:33:18.653Z,34.89
2017-04-16T01:33:28.930Z,34.89
2017-04-16T01:33:39.038Z,34.89
2017-04-16T01:33:49.129Z,34.89
2017-04-16T01:33:58.932Z,34.89
2017-04-16T01:34:08.739Z,34.89
2017-04-16T01:34:18.824Z,34.89
2017-04-16T01:34:28.910Z,34.89
2017-04-16T01:34:39.000Z,34.89
2017-04-16T01:34:49.088Z,34.89
2017-04-16T01:34:59.169Z,34.89
2017-04-16T01:35:09.270Z,34.91
2017-04-16T01:35:19.352Z,34.89
2017-04-16T01:35:29.150Z,34.89
2017-04-16T01:35:39.238Z,34.89
2017-04-16T01:35:49.328Z,34.89
2017-04-16T01:35:59.418Z,34.89
2017-04-16T01:36:09.521Z,34.89
2017-04-16T01:36:19.359Z,34.89
2017-04-16T01:36:28.582Z,34.89
2017-04-16T01:36:38.679Z,34.99
2017-04-16T01:36:48.762Z,34.89
2017-04-16T01:36:58.850Z,34.89
2017-04-16T01:37:08.953Z,34.89
2017-04-16T01:37:19.034Z,34.99
2017-04-16T01:37:29.125Z,34.99
2017-04-16T01:37:38.925Z,34.99
2017-04-16T01:37:49.019Z,34.99
2017-04-16T01:37:59.126Z,34.99
2017-04-16T01:38:08.928Z,34.99
2017-04-16T01:38:19.018Z,34.99
2017-04-16T01:38:29.104Z,34.99
2017-04-16T01:38:39.197Z,34.99
2017-04-16T01:38:49.286Z,34.99
2017-04-16T01:38:59.373Z,34.99
2017-04-16T01:39:09.464Z,34.99
2017-04-16T01:39:19.562Z,34.99
2017-04-16T01:39:29.651Z,34.99
2017-04-16T01:39:39.743Z,34.99
2017-04-16T01:39:49.548Z,34.99
2017-04-16T01:39:59.635Z,34.99
2017-04-16T01:40:09.901Z,34.99
2017-04-16T01:40:19.729Z,34.99
2017-04-16T01:40:29.819Z,34.99
2017-04-16T01:40:39.904Z,34.99
2017-04-16T01:40:49.711Z,34.99
2017-04-16T01:40:59.799Z,34.99
2017-04-16T01:41:09.599Z,34.99
2017-04-16T01:41:19.683Z,34.99
2017-04-16T01:41:29.769Z,34.99
2017-04-16T01:41:39.855Z,34.99
2017-04-16T01:41:49.655Z,34.99
2017-04-16T01:41:59.744Z,34.99
2017-04-16T01:42:09.830Z,34.99
2017-04-16T01:42:19.914Z,35.08
2017-04-16T01:42:30.012Z,35.08
2017-04-16T01:42:39.813Z,35.08
2017-04-16T01:42:49.904Z,35.08
2017-04-16T01:42:59.713Z,35.08
2017-04-16T01:43:09.806Z,35.08
2017-04-16T01:43:19.899Z,35.08
2017-04-16T01:43:29.995Z,35.08
2017-04-16T01:43:40.103Z,35.18
2017-04-16T01:43:50.197Z,35.08
2017-04-16T01:44:00.286Z,35.18
2017-04-16T01:44:09.839Z,35.08
2017-04-16T01:44:19.932Z,35.18
2017-04-16T01:44:30.024Z,35.18
2017-04-16T01:44:39.823Z,35.18
2017-04-16T01:44:49.915Z,35.18
2017-04-16T01:45:00.001Z,35.18
2017-04-16T01:45:10.115Z,35.18
2017-04-16T01:45:20.205Z,35.18
2017-04-16T01:45:30.293Z,35.18
2017-04-16T01:45:40.385Z,35.18
2017-04-16T01:45:50.720Z,35.18
2017-04-16T01:46:00.806Z,35.18
2017-04-16T01:46:10.892Z,35.18
2017-04-16T01:46:20.974Z,35.18
2017-04-16T01:46:30.772Z,35.18
2017-04-16T01:46:40.863Z,35.18
2017-04-16T01:46:50.951Z,35.18
2017-04-16T01:47:01.256Z,35.18
2017-04-16T01:47:11.352Z,35.18
2017-04-16T01:47:21.441Z,35.18
2017-04-16T01:47:31.532Z,35.18
2017-04-16T01:47:41.627Z,35.18
2017-04-16T01:47:51.716Z,35.18
2017-04-16T01:48:01.813Z,35.18
2017-04-16T01:48:11.617Z,35.18
2017-04-16T01:48:21.425Z,35.18
2017-04-16T01:48:31.523Z,35.18
2017-04-16T01:48:41.617Z,35.18
2017-04-16T01:48:51.713Z,35.18
2017-04-16T01:49:01.803Z,35.18
2017-04-16T01:49:11.938Z,35.18
2017-04-16T01:49:22.030Z,35.18
2017-04-16T01:49:31.839Z,35.18
2017-04-16T01:49:41.640Z,35.18
2017-04-16T01:49:51.726Z,35.18
2017-04-16T01:50:01.819Z,35.18
2017-04-16T01:50:11.649Z,35.18
2017-04-16T01:50:21.498Z,35.18
2017-04-16T01:50:31.583Z,35.18
2017-04-16T01:50:41.671Z,35.18
2017-04-16T01:50:51.758Z,35.18
2017-04-16T01:51:01.845Z,35.18
2017-04-16T01:51:11.933Z,35.18
2017-04-16T01:51:22.019Z,35.18
2017-04-16T01:51:32.107Z,35.18
2017-04-16T01:51:42.192Z,35.18
2017-04-16T01:51:52.307Z,35.18
2017-04-16T01:52:02.407Z,35.18
2017-04-16T01:52:12.226Z,35.18
2017-04-16T01:52:22.314Z,35.18
2017-04-16T01:52:32.433Z,35.18
2017-04-16T01:52:41.948Z,35.18
2017-04-16T01:52:52.088Z,35.18
2017-04-16T01:53:02.178Z,35.18
2017-04-16T01:53:12.275Z,35.18
2017-04-16T01:53:22.364Z,35.18
2017-04-16T01:53:32.450Z,35.18
2017-04-16T01:53:42.548Z,35.18
2017-04-16T01:53:52.631Z,35.18
2017-04-16T01:54:02.722Z,35.18
2017-04-16T01:54:12.807Z,35.18
2017-04-16T01:54:22.896Z,35.18
2017-04-16T01:54:32.980Z,35.18
2017-04-16T01:54:42.778Z,35.18
2017-04-16T01:54:52.871Z,35.18
2017-04-16T01:55:02.961Z,35.18
2017-04-16T01:55:13.047Z,35.18
2017-04-16T01:55:23.132Z,35.18
2017-04-16T01:55:33.222Z,35.18
2017-04-16T01:55:43.309Z,35.18
2017-04-16T01:55:53.472Z,35.18
2017-04-16T01:56:03.632Z,35.18
2017-04-16T01:56:13.728Z,35.18
2017-04-16T01:56:23.816Z,35.18
2017-04-16T01:56:33.902Z,35.18
2017-04-16T01:56:43.996Z,35.18
2017-04-16T01:56:54.079Z,35.18
2017-04-16T01:57:04.261Z,35.18
2017-04-16T01:57:14.348Z,35.18
2017-04-16T01:57:24.435Z,35.18
2017-04-16T01:57:34.521Z,35.19
2017-04-16T01:57:44.611Z,35.19
2017-04-16T01:57:54.700Z,35.19
2017-04-16T01:58:04.795Z,35.19
2017-04-16T01:58:14.882Z,35.19
2017-04-16T01:58:24.972Z,35.19
2017-04-16T01:58:34.774Z,35.19
2017-04-16T01:58:44.866Z,35.19
2017-04-16T01:58:54.964Z,35.19
2017-04-16T01:59:05.051Z,35.19
2017-04-16T01:59:15.155Z,35.19
2017-04-16T01:59:25.248Z,35.19
2017-04-16T01:59:35.059Z,35.19
2017-04-16T01:59:44.864Z,35.19
2017-04-16T01:59:54.667Z,35.19
2017-04-16T02:00:04.776Z,35.19
2017-04-16T02:00:14.861Z,35.19
2017-04-16T02:00:24.947Z,35.19
2017-04-16T02:00:35.077Z,35.19
2017-04-16T02:00:45.164Z,35.19
2017-04-16T02:00:55.247Z,35.19
2017-04-16T02:01:05.334Z,35.19
2017-04-16T02:01:15.137Z,35.19
2017-04-16T02:01:24.933Z,35.19
2017-04-16T02:01:35.143Z,35.19
2017-04-16T02:01:45.230Z,35.19
2017-04-16T02:01:55.320Z,35.19
2017-04-16T02:02:05.415Z,35.19
2017-04-16T02:02:15.501Z,35.19
2017-04-16T02:02:25.595Z,35.19
2017-04-16T02:02:35.679Z,35.19
2017-04-16T02:02:45.850Z,35.29
2017-04-16T02:02:55.939Z,35.18
2017-04-16T02:03:06.038Z,35.29
2017-04-16T02:03:16.127Z,35.29
2017-04-16T02:03:26.209Z,35.29
2017-04-16T02:03:36.302Z,35.27
2017-04-16T02:03:46.456Z,35.27
2017-04-16T02:03:56.542Z,35.27
2017-04-16T02:04:06.628Z,35.27
2017-04-16T02:04:16.720Z,35.27
2017-04-16T02:04:26.527Z,35.27
2017-04-16T02:04:36.614Z,35.27
2017-04-16T02:04:46.704Z,35.27
2017-04-16T02:04:56.793Z,35.27
2017-04-16T02:05:06.878Z,35.27
2017-04-16T02:05:16.968Z,35.27
2017-04-16T02:05:27.052Z,35.29
2017-04-16T02:05:37.146Z,35.29
2017-04-16T02:05:47.230Z,35.29
2017-04-16T02:05:57.324Z,35.29
2017-04-16T02:06:07.470Z,35.29
2017-04-16T02:06:16.982Z,35.29
2017-04-16T02:06:26.775Z,35.29
2017-04-16T02:06:36.860Z,35.29
2017-04-16T02:06:46.663Z,35.27
2017-04-16T02:06:56.752Z,35.36
2017-04-16T02:07:06.551Z,35.27
2017-04-16T02:07:16.355Z,35.36
2017-04-16T02:07:26.445Z,35.36
2017-04-16T02:07:36.536Z,35.36
2017-04-16T02:07:46.342Z,35.36
2017-04-16T02:07:56.436Z,35.36
2017-04-16T02:08:06.531Z,35.36
2017-04-16T02:08:16.338Z,35.36
2017-04-16T02:08:26.435Z,35.36
2017-04-16T02:08:36.535Z,35.36
2017-04-16T02:08:46.054Z,35.36
2017-04-16T02:08:55.855Z,35.36
2017-04-16T02:09:05.946Z,35.36
2017-04-16T02:09:16.040Z,35.36
2017-04-16T02:09:26.221Z,35.36
2017-04-16T02:09:36.030Z,35.36